Terminal Aerodrome Forecast
Issued by NWS Portland, OR

Home | Current Version | Previous Version | Text Only | Print | Product List | Glossary On
Versions: 1 2 3 4 5 6 7 8 9 10 11 12 13 14 15 16 17 18 19 20 21 22 23 24 25 26 27 28 29 30 31 32 33 34
421
FTUS46 KPQR 160814 AAA
TAFTTD
TAF AMD
KTTD 160814Z 1608/1706 16003KT P6SM VCSH OVC015
     FM161300 15004KT P6SM BKN025 BKN040
     FM161800 21006KT P6SM -SHRA SCT025 BKN040
     FM170300 18005KT P6SM VCSH BKN040=

USA.gov is the U.S. government's official web portal to all federal, state and local government web resources and services.